createdAt,value
2024-05-09T00:01:26.501Z,102109.94
2024-05-09T00:03:56.262Z,102110.81
2024-05-09T00:06:28.660Z,102111.56
2024-05-09T00:08:58.395Z,102107.53
2024-05-09T00:11:28.197Z,102111.66
2024-05-09T00:13:58.000Z,102115.41
2024-05-09T00:16:27.739Z,102104.22
2024-05-09T00:18:57.539Z,102107.50
2024-05-09T00:21:29.816Z,102114.34
2024-05-09T00:23:59.622Z,102112.50
2024-05-09T00:26:29.447Z,102110.13
2024-05-09T00:28:59.325Z,102111.53
2024-05-09T00:31:29.190Z,102106.47
2024-05-09T00:33:59.028Z,102112.94
2024-05-09T00:36:31.555Z,102115.66
2024-05-09T00:39:01.391Z,102113.53
2024-05-09T00:41:31.520Z,102108.25
2024-05-09T00:44:02.357Z,102104.88
2024-05-09T00:46:32.208Z,102099.81
2024-05-09T00:49:02.277Z,102105.59
2024-05-09T00:51:34.928Z,102103.25
2024-05-09T00:54:05.478Z,102103.81
2024-05-09T00:56:37.581Z,102105.69
2024-05-09T00:59:07.651Z,102098.25
2024-05-09T01:01:37.794Z,102109.16
2024-05-09T01:09:16.998Z,102096.84
2024-05-09T01:12:50.192Z,102104.75
2024-05-09T01:15:20.034Z,102099.84
2024-05-09T01:17:50.467Z,102112.25
2024-05-09T01:20:31.549Z,102103.88
2024-05-09T01:23:12.692Z,102106.31
2024-05-09T01:25:43.824Z,102104.16
2024-05-09T01:28:14.013Z,102103.13
2024-05-09T01:30:43.699Z,102101.34
2024-05-09T01:33:14.043Z,102108.00
2024-05-09T01:35:44.228Z,102100.84
2024-05-09T01:38:17.359Z,102101.53
2024-05-09T01:40:47.923Z,102093.06
2024-05-09T01:43:18.110Z,102091.72
2024-05-09T01:45:48.539Z,102093.59
2024-05-09T01:48:18.694Z,102090.38
2024-05-09T01:50:48.737Z,102089.38
2024-05-09T01:53:21.256Z,102085.31
2024-05-09T01:55:51.113Z,102087.75
2024-05-09T01:58:23.436Z,102094.19
2024-05-09T02:00:53.295Z,102093.19
2024-05-09T02:03:23.837Z,102092.34
2024-05-09T02:05:53.811Z,102095.59
2024-05-09T02:08:26.205Z,102089.97
2024-05-09T02:10:56.443Z,102091.84
2024-05-09T02:13:26.296Z,102091.34
2024-05-09T02:15:56.199Z,102090.50
2024-05-09T02:18:26.063Z,102092.38
2024-05-09T02:20:56.199Z,102101.91
2024-05-09T02:23:28.903Z,102097.03
2024-05-09T02:25:58.983Z,102093.16
2024-05-09T02:28:28.784Z,102097.44
2024-05-09T02:30:59.995Z,102098.81
2024-05-09T02:33:31.087Z,102101.72
2024-05-09T02:36:01.528Z,102102.56
2024-05-09T02:38:32.281Z,102097.50
2024-05-09T02:41:02.223Z,102098.31
2024-05-09T02:43:29.523Z,102092.06
2024-05-09T02:46:01.719Z,102097.69
2024-05-09T02:48:29.214Z,102092.94
2024-05-09T02:50:59.939Z,102096.22
2024-05-09T02:53:32.803Z,102098.25
2024-05-09T02:56:02.987Z,102097.94
2024-05-09T02:58:30.526Z,102104.75
2024-05-09T03:01:00.341Z,102101.91
2024-05-09T03:03:27.819Z,102098.88
2024-05-09T03:05:57.613Z,102099.75
2024-05-09T03:08:25.032Z,102098.56
2024-05-09T03:10:57.476Z,102097.41
2024-05-09T03:13:24.867Z,102095.69
2024-05-09T03:15:54.608Z,102094.00
2024-05-09T03:18:21.884Z,102098.59
2024-05-09T03:20:51.893Z,102095.03
2024-05-09T03:23:19.196Z,102093.34
2024-05-09T03:25:56.663Z,102087.72
2024-05-09T03:28:26.544Z,102088.28
2024-05-09T03:30:57.206Z,102086.41
2024-05-09T03:33:24.664Z,102082.84
2024-05-09T03:35:54.618Z,102081.81
2024-05-09T03:38:24.403Z,102086.56
2024-05-09T03:40:54.359Z,102077.75
2024-05-09T03:43:21.575Z,102093.72
2024-05-09T03:45:53.999Z,102092.50
2024-05-09T03:48:21.633Z,102094.00
2024-05-09T03:50:51.830Z,102096.56
2024-05-09T03:53:19.922Z,102094.50
2024-05-09T03:55:50.356Z,102087.56
2024-05-09T03:58:19.057Z,102087.50
2024-05-09T04:00:49.038Z,102087.66
2024-05-09T04:03:20.664Z,102095.28
2024-05-09T04:05:50.974Z,102083.19
2024-05-09T04:08:20.084Z,102084.72
2024-05-09T04:10:50.387Z,102079.28
2024-05-09T04:13:18.018Z,102092.19
2024-05-09T04:15:47.968Z,102084.22
2024-05-09T04:18:19.729Z,102088.81
2024-05-09T04:20:49.608Z,102094.78
2024-05-09T04:23:16.893Z,102091.59
2024-05-09T04:25:48.156Z,102091.22
2024-05-09T04:28:16.576Z,102092.75
2024-05-09T04:30:46.974Z,102098.34
2024-05-09T04:33:15.307Z,102097.69
2024-05-09T04:35:49.755Z,102096.84
2024-05-09T04:38:17.583Z,102102.47
2024-05-09T04:40:49.052Z,102103.47
2024-05-09T04:43:19.166Z,102103.09
2024-05-09T04:45:50.240Z,102099.00
2024-05-09T04:48:18.004Z,102091.16
2024-05-09T04:50:51.294Z,102105.91
2024-05-09T04:53:21.271Z,102096.91
2024-05-09T04:55:51.197Z,102101.16
2024-05-09T04:58:18.879Z,102098.63
2024-05-09T05:00:48.974Z,102102.34
2024-05-09T05:03:17.151Z,102101.03
2024-05-09T05:05:52.066Z,102096.47
2024-05-09T05:08:23.748Z,102099.00
2024-05-09T05:10:54.984Z,102103.44
2024-05-09T05:13:24.167Z,102111.53
2024-05-09T05:15:58.583Z,102105.75
2024-05-09T05:18:29.233Z,102104.72
2024-05-09T05:21:06.412Z,102101.59
2024-05-09T05:23:37.502Z,102111.41
2024-05-09T05:26:09.741Z,102112.53
2024-05-09T05:28:38.184Z,102110.69
2024-05-09T05:31:08.616Z,102109.16
2024-05-09T05:33:36.753Z,102108.88
2024-05-09T05:36:11.756Z,102115.81
2024-05-09T05:38:41.974Z,102110.84
2024-05-09T05:41:10.609Z,102109.63
2024-05-09T05:43:42.005Z,102119.50
2024-05-09T05:46:10.999Z,102111.34
2024-05-09T05:48:41.322Z,102119.09
2024-05-09T05:51:11.767Z,102119.88
2024-05-09T05:53:41.965Z,102123.91
2024-05-09T05:56:09.914Z,102121.81
2024-05-09T05:58:43.270Z,102129.47
2024-05-09T06:01:11.227Z,102123.03
2024-05-09T06:03:41.725Z,102125.78
2024-05-09T06:06:14.199Z,102131.28
2024-05-09T06:08:46.230Z,102133.72
2024-05-09T06:11:14.072Z,102129.09
2024-05-09T06:13:45.967Z,102130.06
2024-05-09T06:16:14.598Z,102129.22
2024-05-09T06:18:44.659Z,102120.28
2024-05-09T06:21:16.718Z,102120.75
2024-05-09T06:23:48.674Z,102119.63
2024-05-09T06:26:16.267Z,102117.56
2024-05-09T06:28:46.947Z,102121.41
2024-05-09T06:31:15.565Z,102118.75
2024-05-09T06:33:46.040Z,102109.97
2024-05-09T06:36:16.200Z,102116.63
2024-05-09T06:38:46.118Z,102113.78
2024-05-09T06:41:13.432Z,102116.22
2024-05-09T06:43:43.342Z,102114.53
2024-05-09T06:46:12.757Z,102110.97
2024-05-09T06:48:42.710Z,102104.06
2024-05-09T06:51:10.154Z,102116.50
2024-05-09T06:53:43.223Z,102115.28
2024-05-09T06:56:14.213Z,102112.72
2024-05-09T06:58:44.410Z,102115.56
2024-05-09T07:01:14.337Z,102114.44
2024-05-09T07:03:44.584Z,102116.78
2024-05-09T07:06:12.515Z,102113.97
2024-05-09T07:08:44.861Z,102114.88
2024-05-09T07:11:12.416Z,102118.91
2024-05-09T07:13:42.301Z,102113.22
2024-05-09T07:16:09.479Z,102121.09
2024-05-09T07:18:39.696Z,102119.47
2024-05-09T07:21:07.180Z,102120.00
2024-05-09T07:23:37.625Z,102108.81
2024-05-09T07:26:07.758Z,102118.09
2024-05-09T07:28:37.841Z,102115.56
2024-05-09T07:31:05.435Z,102102.56
2024-05-09T07:33:35.686Z,102101.16
2024-05-09T07:36:03.238Z,102095.75
2024-05-09T07:38:33.339Z,102093.72
2024-05-09T07:41:00.683Z,102092.25
2024-05-09T07:43:33.126Z,102097.72
2024-05-09T07:47:04.539Z,102093.09
2024-05-09T07:54:00.977Z,102096.91
2024-05-09T07:56:32.116Z,102087.47
2024-05-09T07:59:01.990Z,102092.06
2024-05-09T08:01:31.915Z,102091.03
2024-05-09T08:03:59.274Z,102085.13
2024-05-09T08:06:29.229Z,102089.19
2024-05-09T08:08:57.915Z,102088.16
2024-05-09T08:11:29.463Z,102084.97
2024-05-09T08:13:56.669Z,102083.28
2024-05-09T08:16:29.186Z,102077.63
2024-05-09T08:18:57.872Z,102076.75
2024-05-09T08:21:30.631Z,102075.47
2024-05-09T08:23:57.822Z,102079.41
2024-05-09T08:26:27.534Z,102065.09
2024-05-09T08:28:55.045Z,102072.50
2024-05-09T08:31:24.919Z,102073.28
2024-05-09T08:33:56.528Z,102073.25
2024-05-09T08:36:26.675Z,102074.50
2024-05-09T08:38:56.945Z,102071.13
2024-05-09T08:41:28.040Z,102065.66
2024-05-09T08:43:55.183Z,102074.16
2024-05-09T08:46:25.018Z,102075.44
2024-05-09T08:48:56.482Z,102075.84
2024-05-09T08:51:26.499Z,102061.53
2024-05-09T08:53:53.738Z,102067.63
2024-05-09T08:56:24.231Z,102066.78
2024-05-09T08:58:56.540Z,102070.75
2024-05-09T09:01:26.892Z,102072.81
2024-05-09T09:04:01.861Z,102071.84
2024-05-09T09:06:37.978Z,102076.22
2024-05-09T09:09:06.785Z,102070.34
2024-05-09T09:11:36.822Z,102075.38
2024-05-09T09:14:04.094Z,102076.06
2024-05-09T09:16:37.518Z,102074.47
2024-05-09T09:19:07.686Z,102080.25
2024-05-09T09:21:40.115Z,102071.22
2024-05-09T09:24:09.938Z,102068.31
2024-05-09T09:26:41.698Z,102073.38
2024-05-09T09:29:08.981Z,102070.19
2024-05-09T09:31:39.503Z,102073.31
2024-05-09T09:34:10.061Z,102072.03
2024-05-09T09:36:41.727Z,102069.50
2024-05-09T09:39:09.822Z,102076.16
2024-05-09T09:41:40.746Z,102066.03
2024-05-09T09:44:09.795Z,102060.66
2024-05-09T09:46:40.848Z,102064.91
2024-05-09T09:49:12.271Z,102055.06
2024-05-09T09:51:44.770Z,102065.19
2024-05-09T09:54:14.933Z,102059.41
2024-05-09T09:56:48.748Z,102064.22
2024-05-09T09:59:16.868Z,102062.13
2024-05-09T10:01:47.956Z,102054.28
2024-05-09T10:04:18.824Z,102064.63
2024-05-09T10:06:53.341Z,102049.91
2024-05-09T10:09:21.693Z,102048.03
2024-05-09T10:11:59.736Z,102043.97
2024-05-09T10:14:30.803Z,102036.38
2024-05-09T10:17:07.335Z,102041.41
2024-05-09T10:19:37.356Z,102033.94
2024-05-09T10:22:08.861Z,102033.41
2024-05-09T10:24:49.558Z,102027.41
2024-05-09T10:27:27.818Z,102033.34
2024-05-09T10:29:56.174Z,102023.88
2024-05-09T10:32:26.491Z,102032.94
2024-05-09T10:35:07.079Z,102026.63
2024-05-09T10:37:37.718Z,102026.06
2024-05-09T10:40:11.959Z,102025.53
2024-05-09T10:42:47.471Z,102026.47
2024-05-09T10:45:16.360Z,102021.34
2024-05-09T10:47:46.655Z,102020.69
2024-05-09T10:50:25.044Z,102008.50
2024-05-09T10:52:58.175Z,102014.50
2024-05-09T10:55:25.449Z,102009.50
2024-05-09T10:57:55.725Z,102000.59
2024-05-09T11:00:30.241Z,102003.16
2024-05-09T11:03:04.211Z,102007.69
2024-05-09T11:05:35.833Z,102003.13
2024-05-09T11:08:06.387Z,102008.78
2024-05-09T11:10:34.635Z,102003.72
2024-05-09T11:13:04.969Z,101989.41
2024-05-09T11:15:40.006Z,101988.34
2024-05-09T11:18:10.361Z,101991.56
2024-05-09T11:20:40.304Z,101989.41
2024-05-09T11:23:15.211Z,101992.78
2024-05-09T11:25:48.921Z,101985.97
2024-05-09T11:28:20.436Z,101985.03
2024-05-09T11:30:48.800Z,101985.53
2024-05-09T11:33:20.017Z,101978.28
2024-05-09T11:35:50.319Z,101980.56
2024-05-09T11:38:20.351Z,101975.44
2024-05-09T11:40:50.375Z,101972.13
2024-05-09T11:43:21.339Z,101974.06
2024-05-09T11:45:51.525Z,101961.53
2024-05-09T11:48:21.593Z,101966.84
2024-05-09T11:50:51.946Z,101965.25
2024-05-09T11:53:21.748Z,101958.06
2024-05-09T11:55:49.397Z,101950.38
2024-05-09T11:58:21.431Z,101951.28
2024-05-09T12:00:49.111Z,101939.66
2024-05-09T12:03:19.033Z,101941.44
2024-05-09T12:05:46.692Z,101944.31
2024-05-09T12:08:19.307Z,101943.72
2024-05-09T12:10:46.934Z,101941.09
2024-05-09T12:13:16.883Z,101929.13
2024-05-09T12:15:44.199Z,101934.16
2024-05-09T12:18:14.556Z,101918.72
2024-05-09T12:20:42.818Z,101930.22
2024-05-09T12:23:13.906Z,101927.09
2024-05-09T12:25:44.145Z,101930.94
2024-05-09T12:28:14.050Z,101932.38
2024-05-09T12:30:41.803Z,101925.50
2024-05-09T12:33:13.277Z,101921.25
2024-05-09T12:35:44.225Z,101928.75
2024-05-09T12:38:16.535Z,101925.88
2024-05-09T12:40:46.334Z,101915.19
2024-05-09T12:43:16.237Z,101908.06
2024-05-09T12:45:43.587Z,101906.84
2024-05-09T12:48:13.700Z,101897.63
2024-05-09T12:50:41.907Z,101905.66
2024-05-09T12:53:12.190Z,101909.22
2024-05-09T12:55:48.128Z,101909.09
2024-05-09T12:58:26.366Z,101910.09
2024-05-09T13:00:53.815Z,101909.13
2024-05-09T13:03:24.226Z,101896.91
2024-05-09T13:05:52.364Z,101889.16
2024-05-09T13:08:23.066Z,101893.91
2024-05-09T13:10:50.992Z,101888.75
2024-05-09T13:13:20.962Z,101892.25
2024-05-09T13:15:50.976Z,101891.63
2024-05-09T13:18:21.002Z,101890.44
2024-05-09T13:20:48.404Z,101875.50
2024-05-09T13:23:18.298Z,101877.88
2024-05-09T13:25:46.124Z,101876.56
2024-05-09T13:28:16.366Z,101870.28
2024-05-09T13:30:43.665Z,101865.16
2024-05-09T13:33:16.260Z,101869.47
2024-05-09T13:35:47.562Z,101858.50
2024-05-09T13:38:21.784Z,101855.66
2024-05-09T13:40:51.819Z,101849.03
2024-05-09T13:43:19.290Z,101853.94
2024-05-09T13:45:50.372Z,101844.25
2024-05-09T13:48:20.799Z,101843.78
2024-05-09T13:50:50.812Z,101833.41
2024-05-09T13:53:17.952Z,101838.19
2024-05-09T13:55:48.103Z,101840.56
2024-05-09T13:58:15.726Z,101836.97
2024-05-09T14:00:48.749Z,101836.75
2024-05-09T14:03:18.998Z,101840.63
2024-05-09T14:05:53.057Z,101842.47
2024-05-09T14:08:22.445Z,101837.44
2024-05-09T14:10:53.698Z,101835.53
2024-05-09T14:13:21.207Z,101827.06
2024-05-09T14:15:51.320Z,101829.78
2024-05-09T14:18:19.130Z,101830.16
2024-05-09T14:20:51.589Z,101825.78
2024-05-09T14:23:18.974Z,101819.56
2024-05-09T14:25:53.145Z,101821.41
2024-05-09T14:28:21.871Z,101818.66
2024-05-09T14:30:51.728Z,101813.81
2024-05-09T14:33:25.356Z,101816.63
2024-05-09T14:35:57.961Z,101813.19
2024-05-09T14:38:26.956Z,101811.66
2024-05-09T14:40:56.978Z,101807.91
2024-05-09T14:43:24.569Z,101813.88
2024-05-09T14:45:55.851Z,101802.75
2024-05-09T14:48:23.279Z,101799.56
2024-05-09T14:50:53.299Z,101795.22
2024-05-09T14:53:23.691Z,101799.19
2024-05-09T14:55:53.550Z,101795.38
2024-05-09T14:58:21.232Z,101790.78
2024-05-09T15:00:52.116Z,101793.28
2024-05-09T15:03:21.654Z,101792.84
2024-05-09T15:05:52.571Z,101795.38
2024-05-09T15:08:23.078Z,101783.63
2024-05-09T15:10:53.207Z,101787.63
2024-05-09T15:13:21.288Z,101775.13
2024-05-09T15:15:51.412Z,101776.75
2024-05-09T15:18:19.159Z,101780.84
2024-05-09T15:20:50.045Z,101776.38
2024-05-09T15:23:17.313Z,101780.53
2024-05-09T15:25:50.126Z,101771.13
2024-05-09T15:28:18.074Z,101770.22
2024-05-09T15:30:48.374Z,101768.19
2024-05-09T15:33:16.144Z,101770.00
2024-05-09T15:35:46.704Z,101774.00
2024-05-09T15:38:15.104Z,101767.56
2024-05-09T15:40:45.045Z,101765.88
2024-05-09T15:43:15.018Z,101762.50
2024-05-09T15:45:44.971Z,101764.19
2024-05-09T15:48:12.992Z,101757.13
2024-05-09T15:50:43.247Z,101757.31
2024-05-09T15:53:12.388Z,101755.06
2024-05-09T15:55:43.120Z,101761.84
2024-05-09T15:58:10.658Z,101757.09
2024-05-09T16:00:45.658Z,101752.41
2024-05-09T16:03:15.182Z,101746.78
2024-05-09T16:05:47.183Z,101743.44
2024-05-09T16:08:15.984Z,101745.00
2024-05-09T16:10:46.848Z,101747.66
2024-05-09T16:13:15.350Z,101740.94
2024-05-09T16:15:48.626Z,101743.59
2024-05-09T16:18:16.251Z,101740.38
2024-05-09T16:20:48.526Z,101743.59
2024-05-09T16:23:17.549Z,101740.41
2024-05-09T16:25:48.231Z,101735.03
2024-05-09T16:28:16.497Z,101740.84
2024-05-09T16:30:49.126Z,101734.75
2024-05-09T16:33:19.382Z,101733.91
2024-05-09T16:35:49.759Z,101734.25
2024-05-09T16:38:17.237Z,101726.84
2024-05-09T16:40:47.131Z,101733.91
2024-05-09T16:43:14.461Z,101730.44
2024-05-09T16:45:46.152Z,101739.09
2024-05-09T16:48:16.441Z,101734.53
2024-05-09T16:50:46.252Z,101724.25
2024-05-09T16:53:13.708Z,101728.44
2024-05-09T16:55:43.640Z,101736.56
2024-05-09T16:58:12.429Z,101727.81
2024-05-09T17:00:43.911Z,101728.66
2024-05-09T17:03:15.990Z,101730.81
2024-05-09T17:05:47.854Z,101731.19
2024-05-09T17:08:16.769Z,101730.31
2024-05-09T17:10:48.328Z,101728.56
2024-05-09T17:13:19.317Z,101727.25
2024-05-09T17:15:50.225Z,101726.50
2024-05-09T17:18:23.106Z,101729.75
2024-05-09T17:20:51.483Z,101723.28
2024-05-09T17:23:21.349Z,101721.25
2024-05-09T17:25:48.610Z,101719.22
2024-05-09T17:28:19.079Z,101721.59
2024-05-09T17:30:46.620Z,101722.66
2024-05-09T17:33:16.744Z,101717.88
2024-05-09T17:35:50.372Z,101721.09
2024-05-09T17:38:22.847Z,101723.72
2024-05-09T17:40:50.853Z,101725.00
2024-05-09T17:43:20.927Z,101713.31
2024-05-09T17:45:48.478Z,101716.16
2024-05-09T17:48:20.317Z,101724.28
2024-05-09T17:50:51.421Z,101719.47
2024-05-09T17:53:21.543Z,101719.91
2024-05-09T17:55:50.994Z,101718.72
2024-05-09T17:58:20.921Z,101721.06
2024-05-09T18:00:48.466Z,101715.00
2024-05-09T18:03:18.666Z,101723.47
2024-05-09T18:05:46.034Z,101718.19
2024-05-09T18:08:18.511Z,101726.66
2024-05-09T18:10:45.942Z,101724.41
2024-05-09T18:13:16.946Z,101722.72
2024-05-09T18:15:45.300Z,101728.34
2024-05-09T18:18:15.762Z,101717.38
2024-05-09T18:20:45.606Z,101725.13
2024-05-09T18:23:19.809Z,101728.59
2024-05-09T18:25:48.088Z,101727.63
2024-05-09T18:28:19.022Z,101730.81
2024-05-09T18:30:46.610Z,101728.78
2024-05-09T18:33:17.046Z,101728.41
2024-05-09T18:35:45.316Z,101728.97
2024-05-09T18:38:18.447Z,101731.31
2024-05-09T18:40:49.563Z,101740.63
2024-05-09T18:43:25.922Z,101738.34
2024-05-09T18:45:56.591Z,101734.97
2024-05-09T18:48:27.906Z,101742.81
2024-05-09T18:50:55.434Z,101740.94
2024-05-09T18:53:25.588Z,101736.66
2024-05-09T18:55:58.103Z,101744.44
2024-05-09T18:58:28.141Z,101752.06
2024-05-09T19:00:57.726Z,101748.69
2024-05-09T19:03:29.436Z,101751.44
2024-05-09T19:05:57.162Z,101753.59
2024-05-09T19:08:28.414Z,101755.34
2024-05-09T19:10:58.716Z,101753.59
2024-05-09T19:13:28.641Z,101761.75
2024-05-09T19:15:56.386Z,101761.16
2024-05-09T19:18:26.351Z,101765.03
2024-05-09T19:20:53.785Z,101769.31
2024-05-09T19:23:23.935Z,101772.13
2024-05-09T19:25:51.146Z,101768.16
2024-05-09T19:28:23.658Z,101769.03
2024-05-09T19:30:51.506Z,101774.97
2024-05-09T19:33:21.653Z,101775.44
2024-05-09T19:35:49.060Z,101773.13
2024-05-09T19:38:19.056Z,101775.94
2024-05-09T19:40:46.805Z,101779.94
2024-05-09T19:43:16.760Z,101777.66
2024-05-09T19:45:47.193Z,101779.78
2024-05-09T19:48:17.805Z,101779.41
2024-05-09T19:50:46.246Z,101790.56
2024-05-09T19:53:16.988Z,101788.06
2024-05-09T19:55:44.286Z,101787.47
2024-05-09T19:58:14.273Z,101790.63
2024-05-09T20:00:43.560Z,101791.06
2024-05-09T20:03:17.613Z,101789.84
2024-05-09T20:05:46.819Z,101793.22
2024-05-09T20:08:17.293Z,101787.97
2024-05-09T20:10:44.839Z,101789.25
2024-05-09T20:13:16.485Z,101793.28
2024-05-09T20:15:51.182Z,101790.34
2024-05-09T20:18:24.241Z,101788.91
2024-05-09T20:20:54.401Z,101785.31
2024-05-09T20:23:22.024Z,101787.25
2024-05-09T20:25:51.946Z,101798.38
2024-05-09T20:28:21.746Z,101792.28
2024-05-09T20:30:52.451Z,101789.13
2024-05-09T20:33:20.543Z,101792.31
2024-05-09T20:36:01.656Z,101792.97
2024-05-09T20:38:30.617Z,101790.44
2024-05-09T20:41:04.198Z,101798.28
2024-05-09T20:43:31.429Z,101797.47
2024-05-09T20:46:01.591Z,101800.22
2024-05-09T20:48:29.033Z,101801.72
2024-05-09T20:51:01.445Z,101800.47
2024-05-09T20:53:28.589Z,101805.78
2024-05-09T20:55:58.463Z,101803.91
2024-05-09T20:58:26.996Z,101801.19
2024-05-09T21:00:57.912Z,101802.69
2024-05-09T21:03:25.799Z,101803.53
2024-05-09T21:05:55.643Z,101800.81
2024-05-09T21:08:27.010Z,101803.34
2024-05-09T21:10:57.672Z,101798.09
2024-05-09T21:13:25.685Z,101794.75
2024-05-09T21:15:56.549Z,101790.75
2024-05-09T21:18:24.533Z,101790.53
2024-05-09T21:20:54.541Z,101790.75
2024-05-09T21:23:26.087Z,101790.53
2024-05-09T21:25:57.295Z,101791.81
2024-05-09T21:28:27.146Z,101797.69
2024-05-09T21:30:59.116Z,101794.72
2024-05-09T21:33:37.398Z,101793.47
2024-05-09T21:36:05.540Z,101797.69
2024-05-09T21:38:38.962Z,101799.16
2024-05-09T21:41:08.140Z,101789.91
2024-05-09T21:43:38.515Z,101795.97
2024-05-09T21:46:06.972Z,101792.44
2024-05-09T21:48:38.960Z,101787.59
2024-05-09T21:51:14.193Z,101789.66
2024-05-09T21:53:46.996Z,101786.53
2024-05-09T21:56:14.462Z,101791.16
2024-05-09T21:58:44.875Z,101798.53
2024-05-09T22:01:12.459Z,101796.19
2024-05-09T22:03:42.472Z,101789.28
2024-05-09T22:06:10.128Z,101788.44
2024-05-09T22:08:41.593Z,101789.50
2024-05-09T22:11:13.363Z,101791.81
2024-05-09T22:13:43.605Z,101793.28
2024-05-09T22:16:11.999Z,101792.03
2024-05-09T22:18:41.942Z,101801.03
2024-05-09T22:21:09.363Z,101798.53
2024-05-09T22:23:39.935Z,101797.91
2024-05-09T22:26:07.383Z,101795.56
2024-05-09T22:28:40.893Z,101804.44
2024-05-09T22:31:08.922Z,101801.91
2024-05-09T22:33:39.105Z,101798.53
2024-05-09T22:36:08.548Z,101805.47
2024-05-09T22:38:38.339Z,101805.88
2024-05-09T22:41:06.467Z,101804.41
2024-05-09T22:43:36.465Z,101807.97
2024-05-09T22:46:06.331Z,101813.66
2024-05-09T22:48:36.461Z,101805.03
2024-05-09T22:51:05.360Z,101805.03
2024-05-09T22:53:35.608Z,101810.09
2024-05-09T22:56:02.988Z,101813.44
2024-05-09T22:58:32.746Z,101796.44
2024-05-09T23:01:00.211Z,101796.22
2024-05-09T23:03:32.919Z,101802.13
2024-05-09T23:06:00.640Z,101801.69
2024-05-09T23:08:30.707Z,101794.31
2024-05-09T23:10:57.927Z,101797.25
2024-05-09T23:13:27.949Z,101803.16
2024-05-09T23:15:55.237Z,101805.25
2024-05-09T23:18:25.043Z,101804.81
2024-05-09T23:20:55.002Z,101802.28
2024-05-09T23:23:24.745Z,101797.03
2024-05-09T23:25:52.611Z,101804.81
2024-05-09T23:28:22.830Z,101802.09
2024-05-09T23:30:50.255Z,101804.41
2024-05-09T23:33:20.146Z,101807.97
2024-05-09T23:35:47.471Z,101806.50
2024-05-09T23:38:22.460Z,101798.09
2024-05-09T23:40:51.262Z,101799.78
2024-05-09T23:43:21.402Z,101796.81
2024-05-09T23:45:48.655Z,101795.13
2024-05-09T23:48:18.632Z,101796.63
2024-05-09T23:50:46.088Z,101796.59
2024-05-09T23:53:16.418Z,101794.28
2024-05-09T23:55:46.307Z,101787.16
2024-05-09T23:58:16.202Z,101779.38
